sensor_id;sensor_type;location;lat;lon;timestamp;P1;P2;P0
77354;PMS7003;66422;51.202;19.936;2024-01-25T00:06:51;5.00;1.00;1.00
77354;PMS7003;66422;51.202;19.936;2024-01-25T00:22:11;1.00;1.00;1.00
77354;PMS7003;66422;51.202;19.936;2024-01-25T00:37:30;7.67;1.00;1.00
77354;PMS7003;66422;51.202;19.936;2024-01-25T00:52:50;2.00;2.00;1.00
77354;PMS7003;66422;51.202;19.936;2024-01-25T01:08:11;0.00;0.00;0.00
77354;PMS7003;66422;51.202;19.936;2024-01-25T01:23:31;5.00;0.00;0.00
77354;PMS7003;66422;51.202;19.936;2024-01-25T01:38:50;2.00;1.00;1.00
77354;PMS7003;66422;51.202;19.936;2024-01-25T01:54:10;2.50;1.00;1.00
77354;PMS7003;66422;51.202;19.936;2024-01-25T02:09:29;2.33;0.00;0.00
77354;PMS7003;66422;51.202;19.936;2024-01-25T02:24:49;5.00;0.00;0.00
77354;PMS7003;66422;51.202;19.936;2024-01-25T02:40:09;1.00;1.00;0.00
77354;PMS7003;66422;51.202;19.936;2024-01-25T02:55:29;5.00;1.00;0.00
77354;PMS7003;66422;51.202;19.936;2024-01-25T03:10:48;5.00;1.00;1.00
77354;PMS7003;66422;51.202;19.936;2024-01-25T03:26:08;0.50;0.00;0.00
77354;PMS7003;66422;51.202;19.936;2024-01-25T03:41:28;1.67;1.00;0.33
77354;PMS7003;66422;51.202;19.936;2024-01-25T03:56:49;8.00;1.00;1.00
77354;PMS7003;66422;51.202;19.936;2024-01-25T04:12:09;4.00;1.00;0.33
77354;PMS7003;66422;51.202;19.936;2024-01-25T04:27:29;6.00;1.00;1.00
77354;PMS7003;66422;51.202;19.936;2024-01-25T04:42:48;8.00;4.00;1.00
77354;PMS7003;66422;51.202;19.936;2024-01-25T04:58:08;10.00;1.00;1.00
77354;PMS7003;66422;51.202;19.936;2024-01-25T05:13:28;8.00;2.00;1.00
77354;PMS7003;66422;51.202;19.936;2024-01-25T05:28:47;8.33;3.00;2.00
77354;PMS7003;66422;51.202;19.936;2024-01-25T05:44:08;10.00;1.00;1.00
77354;PMS7003;66422;51.202;19.936;2024-01-25T05:59:27;7.50;3.50;2.00
77354;PMS7003;66422;51.202;19.936;2024-01-25T06:14:47;4.00;1.00;1.00
77354;PMS7003;66422;51.202;19.936;2024-01-25T06:30:07;1.00;1.00;1.00
77354;PMS7003;66422;51.202;19.936;2024-01-25T06:45:27;3.00;2.00;1.00
77354;PMS7003;66422;51.202;19.936;2024-01-25T07:00:47;11.00;2.00;2.00
77354;PMS7003;66422;51.202;19.936;2024-01-25T07:16:07;9.00;4.00;4.00
77354;PMS7003;66422;51.202;19.936;2024-01-25T07:31:27;4.00;1.50;1.00
77354;PMS7003;66422;51.202;19.936;2024-01-25T07:46:47;4.50;2.00;1.00
77354;PMS7003;66422;51.202;19.936;2024-01-25T08:02:07;5.25;2.00;1.50
77354;PMS7003;66422;51.202;19.936;2024-01-25T08:17:27;9.00;4.00;2.00
77354;PMS7003;66422;51.202;19.936;2024-01-25T08:32:46;11.00;4.33;4.00
77354;PMS7003;66422;51.202;19.936;2024-01-25T08:48:06;5.00;5.00;4.00
77354;PMS7003;66422;51.202;19.936;2024-01-25T09:03:27;5.67;4.00;2.00
77354;PMS7003;66422;51.202;19.936;2024-01-25T09:18:47;6.00;5.00;4.00
77354;PMS7003;66422;51.202;19.936;2024-01-25T09:34:07;12.25;3.50;2.50
77354;PMS7003;66422;51.202;19.936;2024-01-25T09:49:26;9.00;5.00;4.00
77354;PMS7003;66422;51.202;19.936;2024-01-25T10:04:53;8.00;5.50;3.00
77354;PMS7003;66422;51.202;19.936;2024-01-25T10:20:13;8.33;4.33;4.00
77354;PMS7003;66422;51.202;19.936;2024-01-25T10:35:34;8.25;4.00;2.00
77354;PMS7003;66422;51.202;19.936;2024-01-25T10:50:56;6.33;4.00;4.00
77354;PMS7003;66422;51.202;19.936;2024-01-25T11:06:18;9.75;2.00;1.00
77354;PMS7003;66422;51.202;19.936;2024-01-25T11:21:41;1.00;0.00;0.00
77354;PMS7003;66422;51.202;19.936;2024-01-25T11:37:05;13.50;9.00;4.00
77354;PMS7003;66422;51.202;19.936;2024-01-25T11:52:24;8.00;4.50;2.00
77354;PMS7003;66422;51.202;19.936;2024-01-25T12:07:45;6.00;4.00;4.00
77354;PMS7003;66422;51.202;19.936;2024-01-25T12:23:06;13.00;5.50;4.50
77354;PMS7003;66422;51.202;19.936;2024-01-25T12:38:27;8.25;5.25;4.25
77354;PMS7003;66422;51.202;19.936;2024-01-25T12:53:49;13.00;4.50;4.00
77354;PMS7003;66422;51.202;19.936;2024-01-25T13:09:09;6.00;5.00;5.00
77354;PMS7003;66422;51.202;19.936;2024-01-25T13:24:29;13.00;8.00;4.50
77354;PMS7003;66422;51.202;19.936;2024-01-25T13:39:48;6.50;5.00;3.00
77354;PMS7003;66422;51.202;19.936;2024-01-25T13:55:08;12.50;5.00;4.00
77354;PMS7003;66422;51.202;19.936;2024-01-25T14:10:27;12.00;8.00;5.00
77354;PMS7003;66422;51.202;19.936;2024-01-25T14:25:47;9.33;5.67;5.00
77354;PMS7003;66422;51.202;19.936;2024-01-25T14:41:08;12.00;8.25;5.50
77354;PMS7003;66422;51.202;19.936;2024-01-25T14:56:28;11.00;6.50;6.50
77354;PMS7003;66422;51.202;19.936;2024-01-25T15:11:48;15.00;8.00;6.50
77354;PMS7003;66422;51.202;19.936;2024-01-25T15:27:08;11.00;8.00;7.00
77354;PMS7003;66422;51.202;19.936;2024-01-25T15:42:28;1.00;1.00;1.00
77354;PMS7003;66422;51.202;19.936;2024-01-25T15:57:50;15.00;10.00;8.00
77354;PMS7003;66422;51.202;19.936;2024-01-25T16:13:10;11.00;5.00;2.00
77354;PMS7003;66422;51.202;19.936;2024-01-25T16:28:29;16.00;13.50;8.00
77354;PMS7003;66422;51.202;19.936;2024-01-25T16:43:49;9.00;6.00;5.00
77354;PMS7003;66422;51.202;19.936;2024-01-25T16:59:09;9.75;7.75;5.25
77354;PMS7003;66422;51.202;19.936;2024-01-25T17:14:28;10.33;9.67;7.67
77354;PMS7003;66422;51.202;19.936;2024-01-25T17:29:48;9.50;7.50;4.50
77354;PMS7003;66422;51.202;19.936;2024-01-25T17:45:08;15.00;8.50;7.50
77354;PMS7003;66422;51.202;19.936;2024-01-25T18:00:28;7.50;7.50;5.00
77354;PMS7003;66422;51.202;19.936;2024-01-25T18:15:48;1.00;1.00;1.00
77354;PMS7003;66422;51.202;19.936;2024-01-25T18:31:08;3.50;1.00;1.00
77354;PMS7003;66422;51.202;19.936;2024-01-25T18:46:27;9.00;5.00;4.00
77354;PMS7003;66422;51.202;19.936;2024-01-25T19:01:47;5.75;4.00;4.00
77354;PMS7003;66422;51.202;19.936;2024-01-25T19:17:10;7.00;7.00;6.00
77354;PMS7003;66422;51.202;19.936;2024-01-25T19:32:30;7.00;6.00;5.00
77354;PMS7003;66422;51.202;19.936;2024-01-25T19:47:50;12.33;7.67;5.33
77354;PMS7003;66422;51.202;19.936;2024-01-25T20:03:10;17.00;10.00;7.50
77354;PMS7003;66422;51.202;19.936;2024-01-25T20:18:30;14.50;13.00;9.00
77354;PMS7003;66422;51.202;19.936;2024-01-25T20:33:50;12.67;11.67;9.33
77354;PMS7003;66422;51.202;19.936;2024-01-25T20:49:10;10.00;8.00;5.00
77354;PMS7003;66422;51.202;19.936;2024-01-25T21:04:30;10.67;5.33;5.33
77354;PMS7003;66422;51.202;19.936;2024-01-25T21:19:51;12.75;6.50;4.50
77354;PMS7003;66422;51.202;19.936;2024-01-25T21:35:11;9.25;6.75;4.50
77354;PMS7003;66422;51.202;19.936;2024-01-25T21:50:31;14.00;8.50;5.50
77354;PMS7003;66422;51.202;19.936;2024-01-25T22:05:51;11.00;9.00;4.00
77354;PMS7003;66422;51.202;19.936;2024-01-25T22:21:11;10.00;7.00;6.00
77354;PMS7003;66422;51.202;19.936;2024-01-25T22:36:30;9.00;7.00;6.00
77354;PMS7003;66422;51.202;19.936;2024-01-25T22:51:50;10.67;9.33;7.33
77354;PMS7003;66422;51.202;19.936;2024-01-25T23:07:09;7.50;7.00;7.00
77354;PMS7003;66422;51.202;19.936;2024-01-25T23:22:29;9.00;4.00;4.00
77354;PMS7003;66422;51.202;19.936;2024-01-25T23:37:49;4.00;4.00;4.00
77354;PMS7003;66422;51.202;19.936;2024-01-25T23:53:09;5.33;4.00;3.67
